sensor_id;sensor_type;location;lat;lon;timestamp;pressure;altitude;pressure_sealevel;temperature;humidity
29815;BME280;16708;50.426;7.664;2023-03-16T00:04:39;990.95;;;0.42;100.00
29815;BME280;16708;50.426;7.664;2023-03-16T00:09:33;990.88;;;0.34;100.00
29815;BME280;16708;50.426;7.664;2023-03-16T00:14:28;990.99;;;0.50;100.00
29815;BME280;16708;50.426;7.664;2023-03-16T00:19:22;991.00;;;0.81;100.00
29815;BME280;16708;50.426;7.664;2023-03-16T00:24:16;991.07;;;0.67;100.00
29815;BME280;16708;50.426;7.664;2023-03-16T00:29:09;991.16;;;0.56;100.00
29815;BME280;16708;50.426;7.664;2023-03-16T00:34:04;991.13;;;0.57;100.00
29815;BME280;16708;50.426;7.664;2023-03-16T00:38:57;991.28;;;0.50;100.00
29815;BME280;16708;50.426;7.664;2023-03-16T00:43:52;991.19;;;0.42;100.00
29815;BME280;16708;50.426;7.664;2023-03-16T00:48:45;991.08;;;0.29;100.00
29815;BME280;16708;50.426;7.664;2023-03-16T00:53:39;991.03;;;0.06;100.00
29815;BME280;16708;50.426;7.664;2023-03-16T00:58:33;991.08;;;0.15;100.00
29815;BME280;16708;50.426;7.664;2023-03-16T01:03:26;991.10;;;0.21;100.00
29815;BME280;16708;50.426;7.664;2023-03-16T01:08:21;991.06;;;0.34;100.00
29815;BME280;16708;50.426;7.664;2023-03-16T01:13:12;991.01;;;0.46;100.00
29815;BME280;16708;50.426;7.664;2023-03-16T01:18:06;990.91;;;0.56;100.00
29815;BME280;16708;50.426;7.664;2023-03-16T01:23:00;990.91;;;0.64;100.00
29815;BME280;16708;50.426;7.664;2023-03-16T01:27:55;990.89;;;0.55;100.00
29815;BME280;16708;50.426;7.664;2023-03-16T01:32:46;990.78;;;0.58;100.00
29815;BME280;16708;50.426;7.664;2023-03-16T01:37:40;990.77;;;0.72;100.00
29815;BME280;16708;50.426;7.664;2023-03-16T01:42:34;990.76;;;0.67;100.00
29815;BME280;16708;50.426;7.664;2023-03-16T01:47:26;990.84;;;0.70;100.00
29815;BME280;16708;50.426;7.664;2023-03-16T01:52:20;990.78;;;0.75;100.00
29815;BME280;16708;50.426;7.664;2023-03-16T01:57:14;990.59;;;0.88;100.00
29815;BME280;16708;50.426;7.664;2023-03-16T02:02:08;990.50;;;0.87;100.00
29815;BME280;16708;50.426;7.664;2023-03-16T02:07:02;990.41;;;0.88;100.00
29815;BME280;16708;50.426;7.664;2023-03-16T02:11:57;990.25;;;0.97;100.00
29815;BME280;16708;50.426;7.664;2023-03-16T02:21:44;990.12;;;1.06;100.00
29815;BME280;16708;50.426;7.664;2023-03-16T02:26:38;990.01;;;1.10;100.00
29815;BME280;16708;50.426;7.664;2023-03-16T02:31:32;989.96;;;1.10;100.00
29815;BME280;16708;50.426;7.664;2023-03-16T02:41:19;989.90;;;1.07;100.00
29815;BME280;16708;50.426;7.664;2023-03-16T02:46:14;989.89;;;1.12;100.00
29815;BME280;16708;50.426;7.664;2023-03-16T02:51:08;989.98;;;1.10;100.00
29815;BME280;16708;50.426;7.664;2023-03-16T02:56:02;989.98;;;1.13;100.00
29815;BME280;16708;50.426;7.664;2023-03-16T03:00:56;989.84;;;1.09;100.00
29815;BME280;16708;50.426;7.664;2023-03-16T03:05:49;989.87;;;1.05;100.00
29815;BME280;16708;50.426;7.664;2023-03-16T03:10:43;989.91;;;1.09;100.00
29815;BME280;16708;50.426;7.664;2023-03-16T03:15:38;989.85;;;1.05;100.00
29815;BME280;16708;50.426;7.664;2023-03-16T03:20:31;989.82;;;1.09;100.00
29815;BME280;16708;50.426;7.664;2023-03-16T03:25:24;989.85;;;1.08;100.00
29815;BME280;16708;50.426;7.664;2023-03-16T03:30:18;989.75;;;0.99;100.00
29815;BME280;16708;50.426;7.664;2023-03-16T03:35:12;989.78;;;0.98;100.00
29815;BME280;16708;50.426;7.664;2023-03-16T03:40:07;989.75;;;0.99;100.00
29815;BME280;16708;50.426;7.664;2023-03-16T03:45:00;989.75;;;1.03;100.00
29815;BME280;16708;50.426;7.664;2023-03-16T03:49:54;989.65;;;0.98;100.00
29815;BME280;16708;50.426;7.664;2023-03-16T03:54:48;989.53;;;1.20;100.00
29815;BME280;16708;50.426;7.664;2023-03-16T03:59:42;989.55;;;1.16;100.00
29815;BME280;16708;50.426;7.664;2023-03-16T04:04:36;989.56;;;1.12;100.00
29815;BME280;16708;50.426;7.664;2023-03-16T04:09:30;989.62;;;1.27;100.00
29815;BME280;16708;50.426;7.664;2023-03-16T04:14:24;989.71;;;1.31;100.00
29815;BME280;16708;50.426;7.664;2023-03-16T04:19:17;989.67;;;1.33;100.00
29815;BME280;16708;50.426;7.664;2023-03-16T04:24:11;989.65;;;1.40;100.00
29815;BME280;16708;50.426;7.664;2023-03-16T04:29:05;989.63;;;1.27;100.00
29815;BME280;16708;50.426;7.664;2023-03-16T04:33:59;989.55;;;1.32;100.00
29815;BME280;16708;50.426;7.664;2023-03-16T04:38:53;989.51;;;1.43;100.00
29815;BME280;16708;50.426;7.664;2023-03-16T04:43:48;989.42;;;1.46;100.00
29815;BME280;16708;50.426;7.664;2023-03-16T04:48:41;989.45;;;1.53;100.00
29815;BME280;16708;50.426;7.664;2023-03-16T04:53:35;989.32;;;1.58;100.00
29815;BME280;16708;50.426;7.664;2023-03-16T04:58:29;989.29;;;1.50;100.00
29815;BME280;16708;50.426;7.664;2023-03-16T05:03:23;989.23;;;1.53;100.00
29815;BME280;16708;50.426;7.664;2023-03-16T05:08:16;989.17;;;1.54;100.00
29815;BME280;16708;50.426;7.664;2023-03-16T05:13:10;989.16;;;1.41;100.00
29815;BME280;16708;50.426;7.664;2023-03-16T05:18:04;989.05;;;1.42;100.00
29815;BME280;16708;50.426;7.664;2023-03-16T05:22:58;989.11;;;1.48;100.00
29815;BME280;16708;50.426;7.664;2023-03-16T05:27:53;989.14;;;1.53;100.00
29815;BME280;16708;50.426;7.664;2023-03-16T05:32:47;989.05;;;1.54;100.00
29815;BME280;16708;50.426;7.664;2023-03-16T05:37:41;989.02;;;1.57;100.00
29815;BME280;16708;50.426;7.664;2023-03-16T05:42:35;989.08;;;1.50;100.00
29815;BME280;16708;50.426;7.664;2023-03-16T05:47:26;989.10;;;1.49;100.00
29815;BME280;16708;50.426;7.664;2023-03-16T05:52:24;989.08;;;1.50;100.00
29815;BME280;16708;50.426;7.664;2023-03-16T05:57:13;989.19;;;1.60;100.00
29815;BME280;16708;50.426;7.664;2023-03-16T06:02:07;989.22;;;1.84;100.00
29815;BME280;16708;50.426;7.664;2023-03-16T06:07:01;989.14;;;1.72;100.00
29815;BME280;16708;50.426;7.664;2023-03-16T06:11:55;989.12;;;1.94;100.00
29815;BME280;16708;50.426;7.664;2023-03-16T06:16:48;989.24;;;1.77;100.00
29815;BME280;16708;50.426;7.664;2023-03-16T06:21:42;989.23;;;1.74;100.00
29815;BME280;16708;50.426;7.664;2023-03-16T06:26:36;989.35;;;1.75;100.00
29815;BME280;16708;50.426;7.664;2023-03-16T06:31:30;989.37;;;1.77;100.00
29815;BME280;16708;50.426;7.664;2023-03-16T06:36:24;989.42;;;1.86;100.00
29815;BME280;16708;50.426;7.664;2023-03-16T06:41:16;989.34;;;2.03;100.00
29815;BME280;16708;50.426;7.664;2023-03-16T06:46:11;989.34;;;2.02;100.00
29815;BME280;16708;50.426;7.664;2023-03-16T06:51:05;989.30;;;2.05;100.00
29815;BME280;16708;50.426;7.664;2023-03-16T06:55:58;989.37;;;2.14;100.00
29815;BME280;16708;50.426;7.664;2023-03-16T07:00:52;989.37;;;2.28;100.00
29815;BME280;16708;50.426;7.664;2023-03-16T07:05:46;989.36;;;2.27;100.00
29815;BME280;16708;50.426;7.664;2023-03-16T07:10:40;989.39;;;2.52;100.00
29815;BME280;16708;50.426;7.664;2023-03-16T07:15:34;989.39;;;2.69;100.00
29815;BME280;16708;50.426;7.664;2023-03-16T07:20:29;989.45;;;2.82;100.00
29815;BME280;16708;50.426;7.664;2023-03-16T07:25:22;989.45;;;2.79;100.00
29815;BME280;16708;50.426;7.664;2023-03-16T07:30:15;989.45;;;3.07;100.00
29815;BME280;16708;50.426;7.664;2023-03-16T07:35:10;989.48;;;3.29;100.00
29815;BME280;16708;50.426;7.664;2023-03-16T07:40:04;989.52;;;4.17;100.00
29815;BME280;16708;50.426;7.664;2023-03-16T07:44:58;989.40;;;3.70;100.00
29815;BME280;16708;50.426;7.664;2023-03-16T07:49:50;989.54;;;4.10;100.00
29815;BME280;16708;50.426;7.664;2023-03-16T07:54:44;989.55;;;3.90;100.00
29815;BME280;16708;50.426;7.664;2023-03-16T07:59:38;989.48;;;4.33;100.00
29815;BME280;16708;50.426;7.664;2023-03-16T08:04:31;989.40;;;4.69;100.00
29815;BME280;16708;50.426;7.664;2023-03-16T08:09:23;989.40;;;4.53;100.00
29815;BME280;16708;50.426;7.664;2023-03-16T08:14:18;989.41;;;5.27;100.00
29815;BME280;16708;50.426;7.664;2023-03-16T08:19:08;989.39;;;5.25;100.00
29815;BME280;16708;50.426;7.664;2023-03-16T08:24:02;989.41;;;5.02;100.00
29815;BME280;16708;50.426;7.664;2023-03-16T08:28:57;989.36;;;4.98;100.00
29815;BME280;16708;50.426;7.664;2023-03-16T08:33:51;989.24;;;5.18;100.00
29815;BME280;16708;50.426;7.664;2023-03-16T08:38:45;989.18;;;5.02;100.00
29815;BME280;16708;50.426;7.664;2023-03-16T08:43:38;989.11;;;5.23;100.00
29815;BME280;16708;50.426;7.664;2023-03-16T08:48:30;989.10;;;5.08;100.00
29815;BME280;16708;50.426;7.664;2023-03-16T08:53:25;989.02;;;5.19;100.00
29815;BME280;16708;50.426;7.664;2023-03-16T08:58:18;989.06;;;5.37;100.00
29815;BME280;16708;50.426;7.664;2023-03-16T09:03:12;989.00;;;5.78;100.00
29815;BME280;16708;50.426;7.664;2023-03-16T09:08:06;989.08;;;6.16;100.00
29815;BME280;16708;50.426;7.664;2023-03-16T09:13:01;989.06;;;5.98;100.00
29815;BME280;16708;50.426;7.664;2023-03-16T09:17:56;989.03;;;6.33;100.00
29815;BME280;16708;50.426;7.664;2023-03-16T09:22:49;989.01;;;8.52;77.50
29815;BME280;16708;50.426;7.664;2023-03-16T09:27:44;988.97;;;8.55;75.76
29815;BME280;16708;50.426;7.664;2023-03-16T09:32:39;988.94;;;9.24;68.18
29815;BME280;16708;50.426;7.664;2023-03-16T09:42:32;989.02;;;8.98;69.05
29815;BME280;16708;50.426;7.664;2023-03-16T09:47:22;989.19;;;9.48;63.89
29815;BME280;16708;50.426;7.664;2023-03-16T09:52:16;989.05;;;9.36;65.20
29815;BME280;16708;50.426;7.664;2023-03-16T10:02:05;988.98;;;10.90;55.49
29815;BME280;16708;50.426;7.664;2023-03-16T10:07:00;988.90;;;10.03;54.93
29815;BME280;16708;50.426;7.664;2023-03-16T10:11:54;988.94;;;9.56;58.23
29815;BME280;16708;50.426;7.664;2023-03-16T10:16:49;988.92;;;12.63;49.83
29815;BME280;16708;50.426;7.664;2023-03-16T10:21:43;988.93;;;12.89;46.68
29815;BME280;16708;50.426;7.664;2023-03-16T10:26:41;988.83;;;10.80;52.31
29815;BME280;16708;50.426;7.664;2023-03-16T10:31:31;988.73;;;10.27;53.99
29815;BME280;16708;50.426;7.664;2023-03-16T10:41:19;988.70;;;9.86;54.78
29815;BME280;16708;50.426;7.664;2023-03-16T10:51:06;988.81;;;9.78;56.20
29815;BME280;16708;50.426;7.664;2023-03-16T10:56:00;988.70;;;9.65;57.97
29815;BME280;16708;50.426;7.664;2023-03-16T11:10:43;988.61;;;9.82;55.58
29815;BME280;16708;50.426;7.664;2023-03-16T11:15:37;988.54;;;9.86;57.01
29815;BME280;16708;50.426;7.664;2023-03-16T11:20:31;988.52;;;11.71;51.46
29815;BME280;16708;50.426;7.664;2023-03-16T11:25:26;988.34;;;14.06;46.02
29815;BME280;16708;50.426;7.664;2023-03-16T11:35:18;988.30;;;15.01;41.16
29815;BME280;16708;50.426;7.664;2023-03-16T11:45:06;988.23;;;12.93;44.78
29815;BME280;16708;50.426;7.664;2023-03-16T11:50:00;988.11;;;12.98;44.51
29815;BME280;16708;50.426;7.664;2023-03-16T12:19:28;987.72;;;14.95;39.07
29815;BME280;16708;50.426;7.664;2023-03-16T12:24:22;987.88;;;15.57;36.80
29815;BME280;16708;50.426;7.664;2023-03-16T12:34:11;987.45;;;18.23;33.91
29815;BME280;16708;50.426;7.664;2023-03-16T12:39:06;987.50;;;16.59;34.32
29815;BME280;16708;50.426;7.664;2023-03-16T12:43:59;987.52;;;12.80;38.96
29815;BME280;16708;50.426;7.664;2023-03-16T12:48:52;987.51;;;14.00;38.64
29815;BME280;16708;50.426;7.664;2023-03-16T12:58:37;987.29;;;14.01;39.08
29815;BME280;16708;50.426;7.664;2023-03-16T13:08:22;987.29;;;12.53;42.68
29815;BME280;16708;50.426;7.664;2023-03-16T13:32:48;986.80;;;11.57;43.03
29815;BME280;16708;50.426;7.664;2023-03-16T13:37:42;986.87;;;12.17;43.10
29815;BME280;16708;50.426;7.664;2023-03-16T13:42:36;986.73;;;12.26;43.63
29815;BME280;16708;50.426;7.664;2023-03-16T13:47:27;986.80;;;12.09;42.42
29815;BME280;16708;50.426;7.664;2023-03-16T13:57:14;986.76;;;12.04;42.97
29815;BME280;16708;50.426;7.664;2023-03-16T14:07:02;986.47;;;12.42;42.39
29815;BME280;16708;50.426;7.664;2023-03-16T14:11:56;986.42;;;14.17;39.65
29815;BME280;16708;50.426;7.664;2023-03-16T14:16:51;986.39;;;14.01;38.84
29815;BME280;16708;50.426;7.664;2023-03-16T14:21:46;986.39;;;13.70;38.96
29815;BME280;16708;50.426;7.664;2023-03-16T14:36:29;986.27;;;15.61;35.40
29815;BME280;16708;50.426;7.664;2023-03-16T14:41:23;986.19;;;16.03;33.83
29815;BME280;16708;50.426;7.664;2023-03-16T14:46:17;986.18;;;15.71;35.89
29815;BME280;16708;50.426;7.664;2023-03-16T14:56:07;985.95;;;14.37;38.43
29815;BME280;16708;50.426;7.664;2023-03-16T15:00:58;986.06;;;13.99;39.21
29815;BME280;16708;50.426;7.664;2023-03-16T15:05:52;985.89;;;12.20;42.32
29815;BME280;16708;50.426;7.664;2023-03-16T15:15:40;985.73;;;16.57;35.02
29815;BME280;16708;50.426;7.664;2023-03-16T15:59:48;985.22;;;13.16;42.52
29815;BME280;16708;50.426;7.664;2023-03-16T16:04:40;985.28;;;12.68;42.30
29815;BME280;16708;50.426;7.664;2023-03-16T16:09:35;985.24;;;12.85;43.06
29815;BME280;16708;50.426;7.664;2023-03-16T16:14:29;985.25;;;11.82;43.81
29815;BME280;16708;50.426;7.664;2023-03-16T16:24:14;985.23;;;11.50;44.68
29815;BME280;16708;50.426;7.664;2023-03-16T16:29:24;985.24;;;11.56;44.95
29815;BME280;16708;50.426;7.664;2023-03-16T16:38:55;985.26;;;10.28;47.86
29815;BME280;16708;50.426;7.664;2023-03-16T16:43:49;985.17;;;9.96;49.65
29815;BME280;16708;50.426;7.664;2023-03-16T16:53:37;984.99;;;9.88;51.04
29815;BME280;16708;50.426;7.664;2023-03-16T16:58:30;985.06;;;9.82;51.04
29815;BME280;16708;50.426;7.664;2023-03-16T17:03:27;985.04;;;10.23;50.05
29815;BME280;16708;50.426;7.664;2023-03-16T17:08:18;985.11;;;9.58;52.11
29815;BME280;16708;50.426;7.664;2023-03-16T17:13:13;985.15;;;9.18;54.88
29815;BME280;16708;50.426;7.664;2023-03-16T17:23:00;985.08;;;8.79;57.88
29815;BME280;16708;50.426;7.664;2023-03-16T17:27:54;984.93;;;8.65;63.08
29815;BME280;16708;50.426;7.664;2023-03-16T18:27:05;984.99;;;8.10;75.14
29815;BME280;16708;50.426;7.664;2023-03-16T18:31:40;984.93;;;8.22;73.03
29815;BME280;16708;50.426;7.664;2023-03-16T18:36:35;984.97;;;7.98;78.01
29815;BME280;16708;50.426;7.664;2023-03-16T18:41:32;985.02;;;7.90;78.56
29815;BME280;16708;50.426;7.664;2023-03-16T18:46:23;985.13;;;7.95;79.60
29815;BME280;16708;50.426;7.664;2023-03-16T18:51:17;985.15;;;7.91;82.12
29815;BME280;16708;50.426;7.664;2023-03-16T18:56:11;985.08;;;7.98;77.76
29815;BME280;16708;50.426;7.664;2023-03-16T19:01:05;985.26;;;8.17;76.80
29815;BME280;16708;50.426;7.664;2023-03-16T19:15:48;985.03;;;8.11;75.54
29815;BME280;16708;50.426;7.664;2023-03-16T19:20:43;985.03;;;8.07;75.92
29815;BME280;16708;50.426;7.664;2023-03-16T19:25:37;984.92;;;8.04;76.19
29815;BME280;16708;50.426;7.664;2023-03-16T19:30:28;985.02;;;8.08;74.92
29815;BME280;16708;50.426;7.664;2023-03-16T19:35:22;985.00;;;8.04;76.09
29815;BME280;16708;50.426;7.664;2023-03-16T19:40:16;985.04;;;7.91;77.05
29815;BME280;16708;50.426;7.664;2023-03-16T19:45:10;984.97;;;7.99;74.16
29815;BME280;16708;50.426;7.664;2023-03-16T19:50:05;984.87;;;7.98;74.63
29815;BME280;16708;50.426;7.664;2023-03-16T19:54:59;984.78;;;7.88;74.73
29815;BME280;16708;50.426;7.664;2023-03-16T19:59:53;984.66;;;7.78;75.18
29815;BME280;16708;50.426;7.664;2023-03-16T20:04:47;984.70;;;7.88;74.23
29815;BME280;16708;50.426;7.664;2023-03-16T20:09:40;984.77;;;7.87;73.38
29815;BME280;16708;50.426;7.664;2023-03-16T20:19:35;984.74;;;7.85;73.20
29815;BME280;16708;50.426;7.664;2023-03-16T20:24:24;984.61;;;7.97;71.32
29815;BME280;16708;50.426;7.664;2023-03-16T20:29:18;984.51;;;7.84;75.35
29815;BME280;16708;50.426;7.664;2023-03-16T20:34:12;984.50;;;7.96;71.69
29815;BME280;16708;50.426;7.664;2023-03-16T20:39:07;984.41;;;7.65;76.16
29815;BME280;16708;50.426;7.664;2023-03-16T20:44:01;984.47;;;7.58;77.80
29815;BME280;16708;50.426;7.664;2023-03-16T20:48:55;984.41;;;7.34;82.23
29815;BME280;16708;50.426;7.664;2023-03-16T20:53:49;984.39;;;7.28;82.61
29815;BME280;16708;50.426;7.664;2023-03-16T21:03:37;984.36;;;7.25;85.49
29815;BME280;16708;50.426;7.664;2023-03-16T21:08:31;984.29;;;7.34;85.01
29815;BME280;16708;50.426;7.664;2023-03-16T22:07:20;983.53;;;6.73;100.00
29815;BME280;16708;50.426;7.664;2023-03-16T22:12:11;983.39;;;7.07;100.00
29815;BME280;16708;50.426;7.664;2023-03-16T22:17:06;983.45;;;7.09;100.00
29815;BME280;16708;50.426;7.664;2023-03-16T22:21:59;983.40;;;7.10;100.00
29815;BME280;16708;50.426;7.664;2023-03-16T22:26:53;983.48;;;7.17;100.00
29815;BME280;16708;50.426;7.664;2023-03-16T22:31:47;983.41;;;7.30;98.04
29815;BME280;16708;50.426;7.664;2023-03-16T22:36:42;983.39;;;7.10;100.00
29815;BME280;16708;50.426;7.664;2023-03-16T22:41:38;983.47;;;7.08;100.00
29815;BME280;16708;50.426;7.664;2023-03-16T22:46:30;983.46;;;7.36;96.32
29815;BME280;16708;50.426;7.664;2023-03-16T22:51:24;983.37;;;7.21;100.00
29815;BME280;16708;50.426;7.664;2023-03-16T22:56:18;983.28;;;7.47;94.22
29815;BME280;16708;50.426;7.664;2023-03-16T23:06:06;983.08;;;7.38;96.21
29815;BME280;16708;50.426;7.664;2023-03-16T23:20:48;982.99;;;7.45;94.25
29815;BME280;16708;50.426;7.664;2023-03-16T23:25:43;982.91;;;7.52;92.33
29815;BME280;16708;50.426;7.664;2023-03-16T23:30:37;983.00;;;7.41;94.80
29815;BME280;16708;50.426;7.664;2023-03-16T23:35:31;982.97;;;7.41;93.58
29815;BME280;16708;50.426;7.664;2023-03-16T23:40:25;982.79;;;7.33;96.39
29815;BME280;16708;50.426;7.664;2023-03-16T23:45:19;982.80;;;7.42;95.48
29815;BME280;16708;50.426;7.664;2023-03-16T23:50:13;982.77;;;7.52;92.35
29815;BME280;16708;50.426;7.664;2023-03-16T23:55:07;982.80;;;7.53;92.27
